KENV

Details ICAO KENV (ENV)
Name Wendover
Region United States
Timezone America/Denver (UTC-6.0)
Plans Departing 10
Arriving 21
Stats Elevation 4,237 ft / 1,291 m (AMSL)
Location 40.718696° -114.030890°
Runways 2
Magnetic Variation 12.100° E
Sunrise 2018-05-27 12:11:09 UTC / 2018-05-27 06:11:09 Local
Sunset 2018-05-28 02:58:22 UTC / 2018-05-27 20:58:22 Local
Advertisement - Login to hide

Runways

ID Width Length Bearing (true) Bearing (mag) Surface Threshold Offset Overrun Length
08 150 ft / 46 m 7,980 ft / 2,432 m 89.96° 77.86° Asphalt 0 ft / 0 m 100 ft / 30 m
12 100 ft / 30 m 7,997 ft / 2,438 m 135.07° 122.97° Asphalt 0 ft / 0 m 30 ft / 9 m
26 150 ft / 46 m 7,980 ft / 2,432 m 269.98° 257.88° Asphalt 0 ft / 0 m 100 ft / 30 m
30 100 ft / 30 m 7,997 ft / 2,438 m 315.08° 302.98° Asphalt 0 ft / 0 m 300 ft / 91 m

Map

Weather


0- 5 10 15 20 25 30 35+ Temperature / ° C

Clouds and Precipitation
Forecast for 2018-05-27 18:00 UTC. Updated 3 hours ago

Ground ~20,000 ft ~40,000 ft Winds

METAR

KENV 271956Z AUTO 31011KT 10SM FEW030 SCT042 OVC055 13/09 A3003 RMK AO2 RAE32 SLP152 P0000 T01330094

TAF

KENV 271741Z 2718/2818 09012KT P6SM -RA SCT040 BKN050 FM271900 34010KT P6SM -SHRA SCT040 BKN060 FM280400 30007KT P6SM SCT060 BKN080 FM281300 04007KT P6SM SCT040 BKN060

Frequencies

Recorded 135.07 MHz AWOS 3
Unicom 122.80 MHz CTAF/UNICOM
Warning: Do not use this data for real-world aviation or navigation. No guarantee of current accuracy is given.